createdAt,value
2024-02-27T00:00:00.866Z,759.00
2024-02-27T00:01:01.098Z,739.00
2024-02-27T00:02:00.932Z,748.00
2024-02-27T00:03:01.073Z,749.00
2024-02-27T00:04:00.980Z,754.00
2024-02-27T00:05:01.046Z,753.00
2024-02-27T00:06:01.184Z,737.00
2024-02-27T00:07:01.205Z,746.00
2024-02-27T00:08:01.195Z,735.00
2024-02-27T00:09:01.265Z,748.00
2024-02-27T00:10:01.253Z,724.00
2024-02-27T00:11:01.306Z,725.00
2024-02-27T00:12:01.393Z,721.00
2024-02-27T00:13:01.372Z,733.00
2024-02-27T00:14:01.385Z,715.00
2024-02-27T00:15:01.416Z,722.00
2024-02-27T00:16:01.430Z,718.00
2024-02-27T00:17:01.480Z,723.00
2024-02-27T00:18:01.592Z,718.00
2024-02-27T00:19:01.773Z,720.00
2024-02-27T00:20:01.705Z,721.00
2024-02-27T00:21:01.664Z,720.00
2024-02-27T00:22:01.639Z,711.00
2024-02-27T00:23:01.657Z,704.00
2024-02-27T00:24:01.750Z,696.00
2024-02-27T00:25:01.767Z,712.00
2024-02-27T00:26:01.786Z,697.00
2024-02-27T00:27:01.860Z,700.00
2024-02-27T00:28:01.846Z,689.00
2024-02-27T00:29:01.883Z,701.00
2024-02-27T00:30:01.909Z,697.00
2024-02-27T00:31:01.939Z,686.00
2024-02-27T00:32:01.981Z,693.00
2024-02-27T00:33:02.117Z,697.00
2024-02-27T00:34:02.146Z,689.00
2024-02-27T00:35:02.330Z,683.00
2024-02-27T00:36:02.133Z,697.00
2024-02-27T00:37:02.111Z,691.00
2024-02-27T00:38:02.164Z,677.00
2024-02-27T00:39:02.232Z,678.00
2024-02-27T00:40:02.229Z,668.00
2024-02-27T00:41:02.279Z,672.00
2024-02-27T00:42:02.308Z,663.00
2024-02-27T00:43:02.349Z,669.00
2024-02-27T00:44:02.349Z,674.00
2024-02-27T00:45:02.423Z,672.00
2024-02-27T00:46:02.418Z,669.00
2024-02-27T00:47:02.423Z,668.00
2024-02-27T00:48:02.571Z,667.00
2024-02-27T00:49:02.554Z,659.00
2024-02-27T00:50:02.501Z,665.00
2024-02-27T00:51:02.642Z,670.00
2024-02-27T00:52:02.576Z,663.00
2024-02-27T00:53:02.573Z,664.00
2024-02-27T00:54:02.576Z,662.00
2024-02-27T00:55:02.654Z,660.00
2024-02-27T00:56:02.649Z,655.00
2024-02-27T00:57:02.731Z,655.00
2024-02-27T00:58:02.723Z,653.00
2024-02-27T00:59:02.736Z,654.00
2024-02-27T01:00:02.768Z,653.00
2024-02-27T01:01:02.805Z,657.00
2024-02-27T01:02:02.834Z,655.00
2024-02-27T01:03:02.902Z,653.00
2024-02-27T01:04:02.900Z,650.00
2024-02-27T01:05:03.011Z,658.00
2024-02-27T01:06:03.107Z,651.00
2024-02-27T01:07:03.246Z,649.00
2024-02-27T01:08:03.036Z,651.00
2024-02-27T01:09:03.130Z,652.00
2024-02-27T01:10:03.099Z,651.00
2024-02-27T01:11:03.123Z,656.00
2024-02-27T01:12:03.287Z,660.00
2024-02-27T01:13:03.214Z,656.00
2024-02-27T01:14:03.254Z,654.00
2024-02-27T01:15:03.346Z,652.00
2024-02-27T01:16:03.334Z,652.00
2024-02-27T01:17:03.361Z,652.00
2024-02-27T01:18:03.425Z,653.00
2024-02-27T01:19:03.532Z,657.00
2024-02-27T01:20:03.430Z,661.00
2024-02-27T01:21:03.566Z,660.00
2024-02-27T01:22:03.443Z,660.00
2024-02-27T01:23:03.503Z,659.00
2024-02-27T01:24:03.563Z,655.00
2024-02-27T01:25:03.587Z,659.00
2024-02-27T01:26:03.618Z,663.00
2024-02-27T01:27:03.676Z,661.00
2024-02-27T01:28:03.641Z,660.00
2024-02-27T01:29:03.689Z,668.00
2024-02-27T01:30:03.761Z,665.00
2024-02-27T01:31:03.712Z,661.00
2024-02-27T01:32:03.768Z,665.00
2024-02-27T01:33:03.951Z,664.00
2024-02-27T01:34:04.013Z,666.00
2024-02-27T01:35:04.159Z,662.00
2024-02-27T01:36:03.952Z,659.00
2024-02-27T01:37:03.875Z,665.00
2024-02-27T01:38:03.903Z,660.00
2024-02-27T01:39:03.978Z,655.00
2024-02-27T01:40:03.916Z,660.00
2024-02-27T01:41:03.923Z,666.00
2024-02-27T01:42:04.019Z,664.00
2024-02-27T01:43:03.976Z,670.00
2024-02-27T01:44:04.031Z,676.00
2024-02-27T01:45:04.063Z,687.00
2024-02-27T01:46:04.016Z,680.00
2024-02-27T01:47:05.635Z,680.00
2024-02-27T01:48:04.131Z,688.00
2024-02-27T01:49:04.152Z,680.00
2024-02-27T01:50:04.046Z,690.00
2024-02-27T01:51:04.125Z,702.00
2024-02-27T01:52:04.099Z,707.00
2024-02-27T01:53:04.093Z,697.00
2024-02-27T01:54:04.139Z,712.00
2024-02-27T01:55:04.241Z,703.00
2024-02-27T01:56:04.157Z,700.00
2024-02-27T01:57:04.236Z,694.00
2024-02-27T01:58:04.197Z,685.00
2024-02-27T01:59:04.239Z,684.00
2024-02-27T02:00:04.244Z,676.00
2024-02-27T02:01:04.407Z,669.00
2024-02-27T02:02:04.269Z,683.00
2024-02-27T02:03:04.367Z,693.00
2024-02-27T02:04:04.397Z,685.00
2024-02-27T02:05:04.349Z,674.00
2024-02-27T02:06:04.436Z,669.00
2024-02-27T02:07:04.525Z,666.00
2024-02-27T02:08:04.354Z,664.00
2024-02-27T02:09:04.511Z,669.00
2024-02-27T02:10:04.482Z,668.00
2024-02-27T02:11:04.785Z,658.00
2024-02-27T02:12:04.685Z,658.00
2024-02-27T02:13:04.681Z,659.00
2024-02-27T02:14:04.755Z,655.00
2024-02-27T02:15:04.944Z,651.00
2024-02-27T02:16:04.923Z,654.00
2024-02-27T02:17:05.033Z,653.00
2024-02-27T02:18:05.131Z,645.00
2024-02-27T02:19:05.159Z,649.00
2024-02-27T02:20:26.797Z,600.00
2024-02-27T02:21:26.816Z,600.00
2024-02-27T02:22:26.777Z,600.00
2024-02-27T02:23:26.765Z,600.00
2024-02-27T02:24:26.813Z,600.00
2024-02-27T02:25:28.045Z,603.00
2024-02-27T02:26:26.873Z,603.00
2024-02-27T02:27:26.854Z,600.00
2024-02-27T02:28:26.788Z,600.00
2024-02-27T02:29:26.759Z,600.00
2024-02-27T02:30:26.849Z,602.00
2024-02-27T02:31:26.836Z,604.00
2024-02-27T02:32:26.908Z,606.00
2024-02-27T02:33:27.057Z,612.00
2024-02-27T02:34:27.022Z,613.00
2024-02-27T02:35:27.009Z,616.00
2024-02-27T02:36:27.064Z,619.00
2024-02-27T02:37:27.098Z,623.00
2024-02-27T02:38:27.181Z,625.00
2024-02-27T02:39:27.339Z,625.00
2024-02-27T02:40:27.294Z,632.00
2024-02-27T02:41:27.364Z,636.00
2024-02-27T02:42:27.483Z,636.00
2024-02-27T02:43:27.483Z,632.00
2024-02-27T02:44:27.540Z,636.00
2024-02-27T02:45:27.606Z,634.00
2024-02-27T02:46:27.601Z,633.00
2024-02-27T02:47:27.667Z,633.00
2024-02-27T02:48:27.704Z,634.00
2024-02-27T02:49:27.814Z,626.00
2024-02-27T02:50:27.774Z,624.00
2024-02-27T02:51:27.866Z,626.00
2024-02-27T02:52:27.849Z,623.00
2024-02-27T02:53:27.886Z,620.00
2024-02-27T02:54:28.029Z,626.00
2024-02-27T02:55:28.010Z,619.00
2024-02-27T02:56:28.082Z,625.00
2024-02-27T02:57:28.090Z,622.00
2024-02-27T02:58:28.139Z,620.00
2024-02-27T02:59:28.174Z,621.00
2024-02-27T03:00:28.300Z,629.00
2024-02-27T03:01:28.362Z,629.00
2024-02-27T03:02:28.309Z,638.00
2024-02-27T03:03:28.433Z,626.00
2024-02-27T03:04:28.436Z,625.00
2024-02-27T03:05:28.450Z,636.00
2024-02-27T03:06:28.689Z,641.00
2024-02-27T03:07:28.663Z,645.00
2024-02-27T03:08:28.570Z,641.00
2024-02-27T03:09:28.663Z,646.00
2024-02-27T03:10:28.692Z,650.00
2024-02-27T03:11:28.690Z,654.00
2024-02-27T03:12:28.791Z,660.00
2024-02-27T03:13:28.794Z,659.00
2024-02-27T03:14:28.896Z,660.00
2024-02-27T03:15:28.962Z,661.00
2024-02-27T03:16:28.926Z,664.00
2024-02-27T03:17:29.033Z,663.00
2024-02-27T03:18:29.164Z,664.00
2024-02-27T03:19:29.094Z,668.00
2024-02-27T03:20:29.082Z,681.00
2024-02-27T03:21:29.170Z,672.00
2024-02-27T03:22:29.186Z,677.00
2024-02-27T03:23:29.181Z,687.00
2024-02-27T03:24:29.378Z,708.00
2024-02-27T03:25:29.309Z,705.00
2024-02-27T03:26:29.367Z,694.00
2024-02-27T03:27:30.205Z,698.00
2024-02-27T03:28:29.431Z,687.00
2024-02-27T03:29:29.471Z,681.00
2024-02-27T03:30:29.624Z,688.00
2024-02-27T03:31:29.577Z,686.00
2024-02-27T03:32:29.666Z,696.00
2024-02-27T03:33:29.771Z,698.00
2024-02-27T03:34:29.761Z,709.00
2024-02-27T03:35:29.743Z,702.00
2024-02-27T03:36:29.818Z,695.00
2024-02-27T03:37:29.785Z,710.00
2024-02-27T03:38:29.850Z,713.00
2024-02-27T03:39:29.929Z,702.00
2024-02-27T03:40:29.943Z,707.00
2024-02-27T03:41:29.984Z,701.00
2024-02-27T03:42:30.091Z,704.00
2024-02-27T03:43:30.160Z,708.00
2024-02-27T03:44:30.098Z,714.00
2024-02-27T03:45:30.173Z,724.00
2024-02-27T03:46:30.271Z,725.00
2024-02-27T03:47:30.296Z,723.00
2024-02-27T03:48:30.428Z,713.00
2024-02-27T03:49:30.358Z,723.00
2024-02-27T03:50:30.365Z,731.00
2024-02-27T03:51:30.459Z,744.00
2024-02-27T03:52:30.964Z,733.00
2024-02-27T03:53:30.474Z,732.00
2024-02-27T03:54:30.571Z,748.00
2024-02-27T03:55:30.559Z,737.00
2024-02-27T03:56:30.613Z,741.00
2024-02-27T03:57:30.708Z,743.00
2024-02-27T03:58:30.667Z,739.00
2024-02-27T03:59:30.742Z,740.00
2024-02-27T04:00:30.756Z,734.00
2024-02-27T04:01:30.809Z,734.00
2024-02-27T04:02:30.876Z,739.00
2024-02-27T04:03:30.864Z,737.00
2024-02-27T04:04:30.930Z,746.00
2024-02-27T04:05:30.913Z,729.00
2024-02-27T04:06:31.016Z,740.00
2024-02-27T04:07:31.066Z,735.00
2024-02-27T04:08:31.049Z,736.00
2024-02-27T04:09:31.126Z,739.00
2024-02-27T04:10:31.127Z,747.00
2024-02-27T04:11:31.214Z,744.00
2024-02-27T04:12:31.212Z,751.00
2024-02-27T04:13:33.065Z,760.00
2024-02-27T04:14:31.268Z,772.00
2024-02-27T04:15:31.296Z,771.00
2024-02-27T04:16:31.352Z,770.00
2024-02-27T04:17:31.449Z,773.00
2024-02-27T04:18:31.625Z,775.00
2024-02-27T04:19:31.575Z,773.00
2024-02-27T04:20:31.551Z,768.00
2024-02-27T04:21:31.547Z,786.00
2024-02-27T04:22:31.559Z,788.00
2024-02-27T04:23:31.648Z,784.00
2024-02-27T04:24:31.668Z,790.00
2024-02-27T04:25:31.669Z,771.00
2024-02-27T04:26:31.692Z,769.00
2024-02-27T04:27:31.837Z,764.00
2024-02-27T04:28:31.791Z,761.00
2024-02-27T04:29:31.806Z,759.00
2024-02-27T04:30:39.019Z,600.00
2024-02-27T04:31:46.265Z,600.00
2024-02-27T04:32:46.244Z,600.00
2024-02-27T04:33:46.485Z,600.00
2024-02-27T04:34:46.285Z,600.00
2024-02-27T04:35:46.210Z,600.00
2024-02-27T04:36:46.212Z,601.00
2024-02-27T04:37:46.196Z,600.00
2024-02-27T04:38:46.210Z,602.00
2024-02-27T04:39:46.202Z,605.00
2024-02-27T04:40:46.231Z,600.00
2024-02-27T04:41:46.236Z,601.00
2024-02-27T04:42:46.202Z,600.00
2024-02-27T04:43:46.215Z,600.00
2024-02-27T04:44:46.177Z,603.00
2024-02-27T04:45:46.239Z,603.00
2024-02-27T04:46:46.230Z,604.00
2024-02-27T04:47:46.289Z,604.00
2024-02-27T04:48:46.289Z,602.00
2024-02-27T04:49:46.355Z,602.00
2024-02-27T04:50:46.218Z,605.00
2024-02-27T04:51:46.219Z,603.00
2024-02-27T04:52:46.209Z,607.00
2024-02-27T04:53:46.209Z,606.00
2024-02-27T04:54:46.240Z,611.00
2024-02-27T04:55:46.231Z,612.00
2024-02-27T04:56:46.268Z,610.00
2024-02-27T04:57:46.233Z,614.00
2024-02-27T04:58:46.232Z,611.00
2024-02-27T04:59:46.214Z,610.00
2024-02-27T05:00:46.337Z,610.00
2024-02-27T05:01:46.232Z,611.00
2024-02-27T05:02:46.240Z,620.00
2024-02-27T05:03:46.359Z,620.00
2024-02-27T05:04:46.252Z,620.00
2024-02-27T05:05:46.323Z,626.00
2024-02-27T05:06:46.275Z,624.00
2024-02-27T05:07:46.228Z,624.00
2024-02-27T05:08:46.231Z,632.00
2024-02-27T05:09:47.126Z,634.00
2024-02-27T05:10:46.374Z,639.00
2024-02-27T05:11:46.249Z,637.00
2024-02-27T05:12:46.241Z,641.00
2024-02-27T05:13:46.243Z,641.00
2024-02-27T05:14:46.214Z,642.00
2024-02-27T05:15:46.234Z,645.00
2024-02-27T05:16:46.227Z,648.00
2024-02-27T05:17:46.268Z,656.00
2024-02-27T05:18:46.340Z,656.00
2024-02-27T05:19:46.345Z,644.00
2024-02-27T05:20:46.260Z,644.00
2024-02-27T05:21:46.350Z,657.00
2024-02-27T05:22:46.320Z,661.00
2024-02-27T05:23:46.347Z,679.00
2024-02-27T05:24:46.432Z,679.00
2024-02-27T05:25:46.505Z,702.00
2024-02-27T05:26:46.543Z,683.00
2024-02-27T05:27:46.576Z,676.00
2024-02-27T05:28:46.626Z,695.00
2024-02-27T05:29:46.740Z,691.00
2024-02-27T05:30:46.782Z,732.00
2024-02-27T05:31:46.737Z,721.00
2024-02-27T05:32:46.824Z,747.00
2024-02-27T05:33:46.964Z,741.00
2024-02-27T05:34:46.929Z,773.00
2024-02-27T05:35:46.942Z,777.00
2024-02-27T05:36:47.067Z,779.00
2024-02-27T05:37:47.123Z,806.00
2024-02-27T05:38:47.101Z,801.00
2024-02-27T05:39:47.164Z,835.00
2024-02-27T05:40:47.227Z,825.00
2024-02-27T05:41:47.258Z,847.00
2024-02-27T05:42:47.355Z,838.00
2024-02-27T05:43:47.395Z,844.00
2024-02-27T05:44:47.504Z,860.00
2024-02-27T05:45:47.594Z,875.00
2024-02-27T05:46:47.623Z,875.00
2024-02-27T05:47:47.660Z,890.00
2024-02-27T05:48:47.793Z,889.00
2024-02-27T05:49:47.847Z,890.00
2024-02-27T05:50:47.904Z,902.00
2024-02-27T05:51:47.961Z,910.00
2024-02-27T05:52:48.013Z,917.00
2024-02-27T05:53:48.185Z,907.00
2024-02-27T05:54:48.263Z,906.00
2024-02-27T05:55:48.243Z,910.00
2024-02-27T05:56:48.275Z,912.00
2024-02-27T05:57:48.414Z,936.00
2024-02-27T05:58:48.395Z,931.00
2024-02-27T05:59:48.426Z,929.00
2024-02-27T06:00:48.575Z,923.00
2024-02-27T06:01:48.547Z,928.00
2024-02-27T06:02:48.654Z,924.00
2024-02-27T06:03:48.775Z,923.00
2024-02-27T06:04:48.823Z,931.00
2024-02-27T06:05:48.833Z,917.00
2024-02-27T06:06:49.010Z,914.00
2024-02-27T06:07:48.935Z,926.00
2024-02-27T06:08:48.976Z,915.00
2024-02-27T06:09:49.081Z,927.00
2024-02-27T06:10:49.109Z,924.00
2024-02-27T06:11:49.101Z,923.00
2024-02-27T06:12:49.289Z,925.00
2024-02-27T06:13:49.205Z,929.00
2024-02-27T06:14:49.299Z,915.00
2024-02-27T06:15:49.336Z,925.00
2024-02-27T06:16:49.347Z,932.00
2024-02-27T06:17:49.395Z,934.00
2024-02-27T06:18:49.710Z,922.00
2024-02-27T06:19:49.417Z,928.00
2024-02-27T06:20:49.399Z,928.00
2024-02-27T06:21:49.486Z,931.00
2024-02-27T06:22:49.436Z,931.00
2024-02-27T06:23:49.454Z,929.00
2024-02-27T06:24:49.552Z,933.00
2024-02-27T06:25:49.624Z,920.00
2024-02-27T06:26:49.586Z,927.00
2024-02-27T06:27:49.674Z,912.00
2024-02-27T06:28:49.665Z,930.00
2024-02-27T06:29:49.766Z,923.00
2024-02-27T06:30:49.848Z,935.00
2024-02-27T06:31:49.900Z,937.00
2024-02-27T06:32:49.945Z,926.00
2024-02-27T06:33:50.010Z,928.00
2024-02-27T06:34:50.010Z,929.00
2024-02-27T06:35:49.954Z,918.00
2024-02-27T06:36:49.993Z,904.00
2024-02-27T06:37:50.061Z,893.00
2024-02-27T06:38:50.106Z,917.00
2024-02-27T06:39:50.128Z,925.00
2024-02-27T06:40:50.193Z,942.00
2024-02-27T06:41:50.326Z,967.00
2024-02-27T06:42:50.281Z,940.00
2024-02-27T06:43:50.328Z,963.00
2024-02-27T06:44:50.357Z,972.00
2024-02-27T06:45:50.425Z,973.00
2024-02-27T06:46:50.431Z,1016.00
2024-02-27T06:47:50.908Z,1030.00
2024-02-27T06:48:50.583Z,1032.00
2024-02-27T06:49:51.043Z,1050.00
2024-02-27T06:50:50.559Z,1071.00
2024-02-27T06:51:50.622Z,1073.00
2024-02-27T06:52:50.866Z,1082.00
2024-02-27T06:53:50.657Z,1091.00
2024-02-27T06:54:50.656Z,1101.00
2024-02-27T06:55:50.658Z,1114.00
2024-02-27T06:56:50.708Z,1117.00
2024-02-27T06:57:51.412Z,1116.00
2024-02-27T06:58:50.703Z,1128.00
2024-02-27T06:59:50.759Z,1136.00
2024-02-27T07:00:50.844Z,1142.00
2024-02-27T07:01:50.810Z,1161.00
2024-02-27T07:02:51.187Z,1177.00
2024-02-27T07:03:50.870Z,1178.00
2024-02-27T07:04:50.941Z,1188.00
2024-02-27T07:05:53.781Z,1187.00
2024-02-27T07:06:50.885Z,1196.00
2024-02-27T07:07:50.921Z,1195.00
2024-02-27T07:08:50.814Z,1205.00
2024-02-27T07:09:50.838Z,1204.00
2024-02-27T07:10:50.909Z,1210.00
2024-02-27T07:11:50.844Z,1207.00
2024-02-27T07:12:50.877Z,1204.00
2024-02-27T07:13:50.944Z,1221.00
2024-02-27T07:14:50.850Z,1210.00
2024-02-27T07:15:50.905Z,1222.00
2024-02-27T07:16:50.835Z,1219.00
2024-02-27T07:17:50.928Z,1215.00
2024-02-27T07:18:50.920Z,1215.00
2024-02-27T07:19:50.875Z,1206.00
2024-02-27T07:20:50.848Z,1229.00
2024-02-27T07:21:50.886Z,1212.00
2024-02-27T07:22:50.880Z,1205.00
2024-02-27T07:23:50.864Z,1199.00
2024-02-27T07:24:50.871Z,1193.00
2024-02-27T07:25:50.880Z,1202.00
2024-02-27T07:26:50.855Z,1188.00
2024-02-27T07:27:50.965Z,1195.00
2024-02-27T07:28:50.851Z,1193.00
2024-02-27T07:29:50.949Z,1214.00
2024-02-27T07:30:50.874Z,1208.00
2024-02-27T07:31:50.847Z,1215.00
2024-02-27T07:32:50.903Z,1232.00
2024-02-27T07:33:50.845Z,1230.00
2024-02-27T07:34:50.922Z,1240.00
2024-02-27T07:35:50.876Z,1234.00
2024-02-27T07:36:50.910Z,1261.00
2024-02-27T07:37:50.882Z,1270.00
2024-02-27T07:38:50.907Z,1283.00
2024-02-27T07:39:50.927Z,1298.00
2024-02-27T07:40:50.893Z,1294.00
2024-02-27T07:41:50.864Z,1277.00
2024-02-27T07:42:50.865Z,1278.00
2024-02-27T07:43:50.892Z,1268.00
2024-02-27T07:44:50.884Z,1246.00
2024-02-27T07:45:51.054Z,1243.00
2024-02-27T07:46:50.901Z,1231.00
2024-02-27T07:47:50.893Z,1231.00
2024-02-27T07:48:50.931Z,1213.00
2024-02-27T07:49:53.355Z,1206.00
2024-02-27T07:50:50.882Z,1206.00
2024-02-27T07:51:50.875Z,1198.00
2024-02-27T07:52:50.904Z,1183.00
2024-02-27T07:53:50.886Z,1198.00
2024-02-27T07:54:50.999Z,1160.00
2024-02-27T07:55:50.935Z,1153.00
2024-02-27T07:56:51.487Z,1148.00
2024-02-27T07:57:50.882Z,1139.00
2024-02-27T07:58:50.887Z,1130.00
2024-02-27T07:59:50.935Z,1125.00
2024-02-27T08:00:51.011Z,1124.00
2024-02-27T08:01:51.031Z,1120.00
2024-02-27T08:02:51.430Z,1132.00
2024-02-27T08:03:50.988Z,1129.00
2024-02-27T08:04:50.932Z,1172.00
2024-02-27T08:05:51.433Z,1179.00
2024-02-27T08:06:51.000Z,1204.00
2024-02-27T08:07:50.911Z,1235.00
2024-02-27T08:08:50.901Z,1287.00
2024-02-27T08:09:50.937Z,1305.00
2024-02-27T08:10:51.408Z,1339.00
2024-02-27T08:11:50.918Z,1372.00
2024-02-27T08:12:50.914Z,1395.00
2024-02-27T08:13:51.382Z,1430.00
2024-02-27T08:14:50.958Z,1455.00
2024-02-27T08:15:50.980Z,1482.00
2024-02-27T08:16:50.911Z,1495.00
2024-02-27T08:17:51.450Z,1518.00
2024-02-27T08:18:51.032Z,1549.00
2024-02-27T08:19:51.027Z,1574.00
2024-02-27T08:20:50.935Z,1592.00
2024-02-27T08:21:50.959Z,1617.00
2024-02-27T08:22:51.402Z,1629.00
2024-02-27T08:23:50.946Z,1640.00
2024-02-27T08:24:50.959Z,1662.00
2024-02-27T08:25:50.899Z,1685.00
2024-02-27T08:26:54.061Z,1682.00
2024-02-27T08:27:51.556Z,1683.00
2024-02-27T08:28:50.959Z,1689.00
2024-02-27T08:29:50.953Z,1698.00
2024-02-27T08:30:51.621Z,1712.00
2024-02-27T08:31:50.952Z,1738.00
2024-02-27T08:32:51.539Z,1737.00
2024-02-27T08:33:51.708Z,1727.00
2024-02-27T08:34:51.095Z,1727.00
2024-02-27T08:35:50.957Z,1704.00
2024-02-27T08:36:50.986Z,1695.00
2024-02-27T08:37:50.948Z,1679.00
2024-02-27T08:38:51.436Z,1674.00
2024-02-27T08:39:51.415Z,1658.00
2024-02-27T08:40:50.984Z,1635.00
2024-02-27T08:41:50.951Z,1606.00
2024-02-27T08:42:50.975Z,1584.00
2024-02-27T08:43:51.472Z,1562.00
2024-02-27T08:44:51.005Z,1530.00
2024-02-27T08:45:50.972Z,1501.00
2024-02-27T08:46:50.953Z,1462.00
2024-02-27T08:47:51.024Z,1432.00
2024-02-27T08:48:51.998Z,1401.00
2024-02-27T08:49:51.263Z,1373.00
2024-02-27T08:50:51.018Z,1340.00
2024-02-27T08:51:50.956Z,1317.00
2024-02-27T08:52:50.985Z,1302.00
2024-02-27T08:53:51.419Z,1280.00
2024-02-27T08:54:50.998Z,1256.00
2024-02-27T08:55:51.011Z,1239.00
2024-02-27T08:56:50.974Z,1209.00
2024-02-27T08:57:51.055Z,1173.00
2024-02-27T08:58:51.451Z,1167.00
2024-02-27T08:59:51.041Z,1163.00
2024-02-27T09:00:51.487Z,1132.00
2024-02-27T09:01:51.161Z,1118.00
2024-02-27T09:02:51.225Z,1111.00
2024-02-27T09:03:51.498Z,1102.00
2024-02-27T09:04:51.311Z,1088.00
2024-02-27T09:05:51.434Z,1058.00
2024-02-27T09:06:51.496Z,1028.00
2024-02-27T09:07:51.444Z,1041.00
2024-02-27T09:08:51.452Z,1021.00
2024-02-27T09:09:51.600Z,1009.00
2024-02-27T09:10:51.761Z,1003.00
2024-02-27T09:11:51.967Z,983.00
2024-02-27T09:12:52.463Z,989.00
2024-02-27T09:13:51.918Z,952.00
2024-02-27T09:14:53.842Z,947.00
2024-02-27T09:15:51.943Z,940.00
2024-02-27T09:16:51.836Z,931.00
2024-02-27T09:17:51.998Z,925.00
2024-02-27T09:18:52.531Z,905.00
2024-02-27T09:19:52.049Z,904.00
2024-02-27T09:20:52.060Z,901.00
2024-02-27T09:21:52.193Z,891.00
2024-02-27T09:22:52.124Z,890.00
2024-02-27T09:23:52.144Z,886.00
2024-02-27T09:24:52.275Z,882.00
2024-02-27T09:25:52.432Z,869.00
2024-02-27T09:26:52.314Z,877.00
2024-02-27T09:27:52.387Z,869.00
2024-02-27T09:28:52.441Z,855.00
2024-02-27T09:29:52.459Z,863.00
2024-02-27T09:30:52.567Z,860.00
2024-02-27T09:31:52.559Z,851.00
2024-02-27T09:32:52.643Z,845.00
2024-02-27T09:33:52.975Z,832.00
2024-02-27T09:34:52.800Z,835.00
2024-02-27T09:35:52.649Z,830.00
2024-02-27T09:36:52.978Z,829.00
2024-02-27T09:37:55.615Z,821.00
2024-02-27T09:38:52.968Z,821.00
2024-02-27T09:39:58.899Z,798.00
2024-02-27T09:40:53.918Z,817.00
2024-02-27T09:41:52.773Z,815.00
2024-02-27T09:42:52.771Z,805.00
2024-02-27T09:43:52.783Z,811.00
2024-02-27T09:44:52.789Z,789.00
2024-02-27T09:45:52.962Z,775.00
2024-02-27T09:46:52.761Z,772.00
2024-02-27T09:47:52.778Z,771.00
2024-02-27T09:48:53.018Z,771.00
2024-02-27T09:49:52.841Z,737.00
2024-02-27T09:50:52.991Z,748.00
2024-02-27T09:51:52.740Z,751.00
2024-02-27T09:52:53.128Z,740.00
2024-02-27T09:53:52.835Z,740.00
2024-02-27T09:54:52.778Z,751.00
2024-02-27T09:55:52.928Z,722.00
2024-02-27T09:56:52.806Z,729.00
2024-02-27T09:57:53.009Z,716.00
2024-02-27T09:58:52.977Z,709.00
2024-02-27T09:59:53.031Z,697.00
2024-02-27T10:00:53.220Z,680.00
2024-02-27T10:01:53.311Z,707.00
2024-02-27T10:02:53.200Z,699.00
2024-02-27T10:03:53.510Z,697.00
2024-02-27T10:04:53.166Z,672.00
2024-02-27T10:05:53.214Z,664.00
2024-02-27T10:06:53.273Z,661.00
2024-02-27T10:07:53.179Z,655.00
2024-02-27T10:08:53.211Z,651.00
2024-02-27T10:09:53.552Z,652.00
2024-02-27T10:10:53.242Z,649.00
2024-02-27T10:11:53.208Z,646.00
2024-02-27T10:12:53.251Z,639.00
2024-02-27T10:13:53.476Z,628.00
2024-02-27T10:14:53.302Z,620.00
2024-02-27T10:15:53.331Z,608.00
2024-02-27T10:16:53.481Z,603.00
2024-02-27T10:17:53.388Z,604.00
2024-02-27T10:18:53.685Z,602.00
2024-02-27T10:19:53.477Z,608.00
2024-02-27T10:20:53.295Z,613.00
2024-02-27T10:21:53.457Z,604.00
2024-02-27T10:22:54.858Z,600.00
2024-02-27T10:23:53.363Z,608.00
2024-02-27T10:24:53.367Z,612.00
2024-02-27T10:25:53.491Z,616.00
2024-02-27T10:26:53.375Z,610.00
2024-02-27T10:27:53.396Z,607.00
2024-02-27T10:28:53.495Z,600.00
2024-02-27T10:29:53.457Z,609.00
2024-02-27T10:30:53.565Z,598.00
2024-02-27T10:31:54.449Z,603.00
2024-02-27T10:32:53.713Z,595.00
2024-02-27T10:33:54.051Z,599.00
2024-02-27T10:34:53.819Z,610.00
2024-02-27T10:35:53.732Z,604.00
2024-02-27T10:36:53.663Z,614.00
2024-02-27T10:37:53.747Z,601.00
2024-02-27T10:38:53.745Z,605.00
2024-02-27T10:39:53.820Z,596.00
2024-02-27T10:40:53.994Z,603.00
2024-02-27T10:41:54.007Z,600.00
2024-02-27T10:42:54.033Z,600.00
2024-02-27T10:43:58.943Z,603.00
2024-02-27T10:44:55.061Z,603.00
2024-02-27T10:45:54.103Z,603.00
2024-02-27T10:46:54.158Z,605.00
2024-02-27T10:47:54.212Z,605.00
2024-02-27T10:48:54.708Z,595.00
2024-02-27T10:49:54.513Z,604.00
2024-02-27T10:50:54.465Z,616.00
2024-02-27T10:51:54.422Z,614.00
2024-02-27T10:52:54.478Z,611.00
2024-02-27T10:53:54.530Z,606.00
2024-02-27T10:54:54.565Z,613.00
2024-02-27T10:55:54.981Z,613.00
2024-02-27T10:56:54.618Z,613.00
2024-02-27T10:57:54.727Z,619.00
2024-02-27T10:58:54.572Z,623.00
2024-02-27T10:59:54.625Z,630.00
2024-02-27T11:00:55.065Z,621.00
2024-02-27T11:01:54.800Z,613.00
2024-02-27T11:02:54.702Z,619.00
2024-02-27T11:03:54.859Z,614.00
2024-02-27T11:04:54.888Z,607.00
2024-02-27T11:05:55.037Z,614.00
2024-02-27T11:06:55.126Z,610.00
2024-02-27T11:07:54.888Z,609.00
2024-02-27T11:08:54.933Z,610.00
2024-02-27T11:09:55.016Z,604.00
2024-02-27T11:10:55.045Z,600.00
2024-02-27T11:11:55.502Z,612.00
2024-02-27T11:12:55.127Z,615.00
2024-02-27T11:13:55.062Z,606.00
2024-02-27T11:14:55.087Z,606.00
2024-02-27T11:15:55.132Z,610.00
2024-02-27T11:16:56.018Z,604.00
2024-02-27T11:17:55.198Z,610.00
2024-02-27T11:18:55.631Z,611.00
2024-02-27T11:19:55.272Z,609.00
2024-02-27T11:20:55.127Z,606.00
2024-02-27T11:21:55.195Z,606.00
2024-02-27T11:22:55.214Z,601.00
2024-02-27T11:23:55.480Z,606.00
2024-02-27T11:24:55.279Z,609.00
2024-02-27T11:25:55.240Z,618.00
2024-02-27T11:26:55.248Z,617.00
2024-02-27T11:27:55.316Z,633.00
2024-02-27T11:28:55.482Z,642.00
2024-02-27T11:29:55.293Z,638.00
2024-02-27T11:30:55.329Z,613.00
2024-02-27T11:31:55.293Z,624.00
2024-02-27T11:32:55.363Z,617.00
2024-02-27T11:33:55.587Z,614.00
2024-02-27T11:34:55.471Z,624.00
2024-02-27T11:35:55.452Z,629.00
2024-02-27T11:36:55.469Z,625.00
2024-02-27T11:37:55.478Z,614.00
2024-02-27T11:38:55.470Z,605.00
2024-02-27T11:39:56.106Z,611.00
2024-02-27T11:40:55.550Z,618.00
2024-02-27T11:41:55.539Z,607.00
2024-02-27T11:42:55.640Z,601.00
2024-02-27T11:43:55.993Z,604.00
2024-02-27T11:44:56.021Z,606.00
2024-02-27T11:45:55.664Z,600.00
2024-02-27T11:46:55.733Z,601.00
2024-02-27T11:47:56.346Z,605.00
2024-02-27T11:48:56.085Z,599.00
2024-02-27T11:49:55.819Z,611.00
2024-02-27T11:50:56.013Z,610.00
2024-02-27T11:51:55.852Z,610.00
2024-02-27T11:52:55.816Z,615.00
2024-02-27T11:53:55.862Z,624.00
2024-02-27T11:54:55.813Z,631.00
2024-02-27T11:55:56.061Z,620.00
2024-02-27T11:56:55.892Z,619.00
2024-02-27T11:57:55.941Z,626.00
2024-02-27T11:58:56.022Z,635.00
2024-02-27T11:59:56.094Z,631.00
2024-02-27T12:00:56.627Z,636.00
2024-02-27T12:01:59.953Z,650.00
2024-02-27T12:02:56.225Z,632.00
2024-02-27T12:03:56.406Z,622.00
2024-02-27T12:04:56.308Z,626.00
2024-02-27T12:05:56.527Z,617.00
2024-02-27T12:06:56.481Z,619.00
2024-02-27T12:07:56.283Z,622.00
2024-02-27T12:08:56.282Z,606.00
2024-02-27T12:09:56.237Z,623.00
2024-02-27T12:10:56.581Z,600.00
2024-02-27T12:11:56.281Z,602.00
2024-02-27T12:12:56.256Z,601.00
2024-02-27T12:13:56.216Z,614.00
2024-02-27T12:14:56.242Z,604.00
2024-02-27T12:15:56.569Z,608.00
2024-02-27T12:16:56.214Z,615.00
2024-02-27T12:17:56.423Z,608.00
2024-02-27T12:18:56.340Z,605.00
2024-02-27T12:19:56.254Z,613.00
2024-02-27T12:20:56.245Z,610.00
2024-02-27T12:21:56.532Z,603.00
2024-02-27T12:22:56.283Z,605.00
2024-02-27T12:23:56.270Z,609.00